全部
Rion Airport (des) LFIL 天氣
There is no TAF data available at LFIL. Showing TAF data for LFBY (17 mi SW).
LFBY終端機場天氣預報(LFIL無資料)
| Date | Time (CEST) | Flight Rules | Wind Dir. | Speed | Type | Height AGL (ft) | Visibility | Remarks | ||||||
|---|---|---|---|---|---|---|---|---|---|---|---|---|---|---|
There is no METAR data available at LFIL. Showing METAR data for LFBY (17 mi SW).
LFBY近期METAR歷史資料(LFIL無資料)
| Date | Time (CEST) | Flight Rules | Wind Dir. | Speed | Type | Height AGL (ft) | Visibility | Temp (°C) | Temp (°F) | Dew Point (°C) | Dew Point (°F) | Rel. Humid. | Pressure | Density Altitude | Remarks |
|---|---|---|---|---|---|---|---|---|---|---|---|---|---|---|---|
| 02-五月 | 17:30 | VFR | 110° | 6 kt | 10000 meters |
17° | 62° | 15° | 59° | 88% | 1015 mb | 295 ft | |||
| 02-五月 | 17:00 | MVFR | 70° | 3 kt | 6000 meters |
17° | 62° | 15° | 59° | 88% | 1015 mb | 295 ft | |||
| 02-五月 | 16:30 | VFR | 330° | 4 kt | 10000 meters | 17° | 62° | 14° | 57° | 82% | 1016 mb | 266 ft | |||
| 02-五月 | 16:00 | VFR | 280° | 7 kt | 10000 meters | 18° | 64° | 14° | 57° | 77% | 1016 mb | 386 ft | |||
| 02-五月 | 15:30 | VFR | 250° | 11 kt | 10000 meters | 20° | 68° | 15° | 59° | 73% | 1016 mb | 626 ft | Wind gusting to 21 KT | ||
| 02-五月 | 15:00 | VFR | 310° | 4 kt | 10000 meters | 21° | 69° | 16° | 60° | 73% | 1016 mb | 746 ft | |||
| 02-五月 | 14:30 | VFR | 300° | 4 kt | 10000 meters | 21° | 69° | 16° | 60° | 73% | 1016 mb | 746 ft | |||
| 02-五月 | 14:00 | VFR | 10° | 5 kt | 10000 meters | 21° | 69° | 16° | 60° | 73% | 1016 mb | 746 ft | |||
| 02-五月 | 13:30 | VFR | 310° | 4 kt | 10000 meters | 20° | 68° | 17° | 62° | 83% | 1016 mb | 626 ft | |||
| 02-五月 | 13:00 | VFR | 30° | 3 kt | 10000 meters | 20° | 68° | 15° | 59° | 73% | 1016 mb | 626 ft | |||
| 02-五月 | 12:30 | VFR | Variable | 3 kt | 10000 meters | 19° | 66° | 14° | 57° | 73% | 1016 mb | 506 ft | |||
| 02-五月 | 12:00 | VFR | 60° | 3 kt | 10000 meters | 18° | 64° | 14° | 57° | 77% | 1016 mb | 386 ft | |||
| 02-五月 | 11:30 | VFR | 40° | 4 kt | 10000 meters | 17° | 62° | 14° | 57° | 82% | 1016 mb | 266 ft | |||
| 02-五月 | 11:00 | VFR | 20° | 4 kt | 10000 meters | 17° | 62° | 13° | 55° | 77% | 1016 mb | 266 ft | |||
| 02-五月 | 10:30 | VFR | 50° | 3 kt | 10000 meters | 17° | 62° | 13° | 55° | 77% | 1017 mb | 236 ft | |||
| 02-五月 | 10:00 | VFR | 90° | 3 kt | 10000 meters | 16° | 60° | 12° | 53° | 77% | 1017 mb | 116 ft | |||
| 02-五月 | 09:30 | VFR | 70° | 4 kt | 10000 meters | 16° | 60° | 12° | 53° | 77% | 1016 mb | 146 ft | |||
| 02-五月 | 09:00 | VFR | 70° | 4 kt | 10000 meters | 15° | 59° | 11° | 51° | 77% | 1016 mb | 26 ft | |||
| 02-五月 | 08:30 | VFR | 80° | 4 kt | 10000 meters | 15° | 59° | 11° | 51° | 77% | 1016 mb | 26 ft | |||
| 02-五月 | 08:00 | VFR | 40° | 4 kt | 10000 meters | 13° | 55° | 10° | 50° | 82% | 1017 mb | -244 ft | |||
| 02-五月 | 07:30 | VFR | 40° | 4 kt | 10000 meters | 13° | 55° | 10° | 50° | 82% | 1017 mb | -244 ft | |||
| 02-五月 | 07:00 | VFR | 50° | 4 kt | 10000 meters | 13° | 55° | 10° | 50° | 82% | 1016 mb | -214 ft | |||
| 02-五月 | 06:30 | VFR | 50° | 3 kt | 10000 meters | 13° | 55° | 10° | 50° | 82% | 1016 mb | -214 ft | |||
| 02-五月 | 06:00 | VFR | 70° | 4 kt | 10000 meters | 13° | 55° | 10° | 50° | 82% | 1016 mb | -214 ft |
登入
| 您的瀏覽器不支援. 升級您的瀏覽器 |
